sensor_id;sensor_type;location;lat;lon;timestamp;pressure;altitude;pressure_sealevel;temperature
61595;BMP280;47397;48.194;11.632;2022-12-10T00:00:45;94633.28;;;1.49
61595;BMP280;47397;48.194;11.632;2022-12-10T00:01:46;94634.06;;;1.54
61595;BMP280;47397;48.194;11.632;2022-12-10T00:02:47;94637.28;;;1.66
61595;BMP280;47397;48.194;11.632;2022-12-10T00:03:48;94643.97;;;1.65
61595;BMP280;47397;48.194;11.632;2022-12-10T00:04:48;94636.56;;;1.54
61595;BMP280;47397;48.194;11.632;2022-12-10T00:05:49;94639.84;;;1.61
61595;BMP280;47397;48.194;11.632;2022-12-10T00:06:50;94647.31;;;1.64
61595;BMP280;47397;48.194;11.632;2022-12-10T00:07:51;94635.66;;;1.62
61595;BMP280;47397;48.194;11.632;2022-12-10T00:08:51;94640.69;;;1.60
61595;BMP280;47397;48.194;11.632;2022-12-10T00:09:52;94645.72;;;1.59
61595;BMP280;47397;48.194;11.632;2022-12-10T00:10:52;94648.13;;;1.66
61595;BMP280;47397;48.194;11.632;2022-12-10T00:11:53;94648.09;;;1.69
61595;BMP280;47397;48.194;11.632;2022-12-10T00:12:53;94647.94;;;1.86
61595;BMP280;47397;48.194;11.632;2022-12-10T00:13:54;94653.09;;;1.71
61595;BMP280;47397;48.194;11.632;2022-12-10T00:14:55;94652.28;;;1.67
61595;BMP280;47397;48.194;11.632;2022-12-10T00:15:55;94658.09;;;1.72
61595;BMP280;47397;48.194;11.632;2022-12-10T00:16:56;94656.41;;;1.73
61595;BMP280;47397;48.194;11.632;2022-12-10T00:17:56;94647.19;;;1.76
61595;BMP280;47397;48.194;11.632;2022-12-10T00:18:57;94643.88;;;1.73
61595;BMP280;47397;48.194;11.632;2022-12-10T00:19:57;94646.41;;;1.73
61595;BMP280;47397;48.194;11.632;2022-12-10T00:20:57;94641.53;;;1.58
61595;BMP280;47397;48.194;11.632;2022-12-10T00:21:59;94643.97;;;1.65
61595;BMP280;47397;48.194;11.632;2022-12-10T00:23:00;94643.88;;;1.73
61595;BMP280;47397;48.194;11.632;2022-12-10T00:24:00;94638.94;;;1.67
61595;BMP280;47397;48.194;11.632;2022-12-10T00:25:01;94645.59;;;1.69
61595;BMP280;47397;48.194;11.632;2022-12-10T00:26:03;94637.38;;;1.56
61595;BMP280;47397;48.194;11.632;2022-12-10T00:27:03;94644.03;;;1.61
61595;BMP280;47397;48.194;11.632;2022-12-10T00:28:04;94645.75;;;1.55
61595;BMP280;47397;48.194;11.632;2022-12-10T00:29:06;94646.59;;;1.53
61595;BMP280;47397;48.194;11.632;2022-12-10T00:30:08;94638.19;;;1.60
61595;BMP280;47397;48.194;11.632;2022-12-10T00:31:10;94634.78;;;1.64
61595;BMP280;47397;48.194;11.632;2022-12-10T00:32:11;94632.31;;;1.61
61595;BMP280;47397;48.194;11.632;2022-12-10T00:33:11;94629.09;;;1.50
61595;BMP280;47397;48.194;11.632;2022-12-10T00:34:12;94629.81;;;1.61
61595;BMP280;47397;48.194;11.632;2022-12-10T00:35:13;94629.09;;;1.50
61595;BMP280;47397;48.194;11.632;2022-12-10T00:36:16;94626.56;;;1.53
61595;BMP280;47397;48.194;11.632;2022-12-10T00:37:17;94632.41;;;1.52
61595;BMP280;47397;48.194;11.632;2022-12-10T00:38:18;94638.25;;;1.52
61595;BMP280;47397;48.194;11.632;2022-12-10T00:39:20;94634.91;;;1.53
61595;BMP280;47397;48.194;11.632;2022-12-10T00:40:20;94639.03;;;1.58
61595;BMP280;47397;48.194;11.632;2022-12-10T00:41:21;94638.97;;;1.64
61595;BMP280;47397;48.194;11.632;2022-12-10T00:42:21;94636.56;;;1.56
61595;BMP280;47397;48.194;11.632;2022-12-10T00:43:22;94636.56;;;1.56
61595;BMP280;47397;48.194;11.632;2022-12-10T00:44:22;94641.47;;;1.64
61595;BMP280;47397;48.194;11.632;2022-12-10T00:45:23;94647.47;;;1.49
61595;BMP280;47397;48.194;11.632;2022-12-10T00:46:23;94638.28;;;1.48
61595;BMP280;47397;48.194;11.632;2022-12-10T00:47:23;94645.78;;;1.51
61595;BMP280;47397;48.194;11.632;2022-12-10T00:48:24;94643.22;;;1.55
61595;BMP280;47397;48.194;11.632;2022-12-10T00:49:24;94645.84;;;1.42
61595;BMP280;47397;48.194;11.632;2022-12-10T00:50:25;94645.81;;;1.45
61595;BMP280;47397;48.194;11.632;2022-12-10T00:51:26;94647.41;;;1.55
61595;BMP280;47397;48.194;11.632;2022-12-10T00:52:28;94651.53;;;1.61
61595;BMP280;47397;48.194;11.632;2022-12-10T00:53:29;94651.59;;;1.53
61595;BMP280;47397;48.194;11.632;2022-12-10T00:54:30;94652.38;;;1.58
61595;BMP280;47397;48.194;11.632;2022-12-10T00:55:30;94651.59;;;1.54
61595;BMP280;47397;48.194;11.632;2022-12-10T00:56:32;94656.69;;;1.41
61595;BMP280;47397;48.194;11.632;2022-12-10T00:57:32;94655.81;;;1.49
61595;BMP280;47397;48.194;11.632;2022-12-10T00:58:34;94658.38;;;1.39
61595;BMP280;47397;48.194;11.632;2022-12-10T00:59:35;94658.31;;;1.45
61595;BMP280;47397;48.194;11.632;2022-12-10T01:00:35;94654.16;;;1.45
61595;BMP280;47397;48.194;11.632;2022-12-10T01:01:37;94664.19;;;1.41
61595;BMP280;47397;48.194;11.632;2022-12-10T01:02:38;94663.31;;;1.51
61595;BMP280;47397;48.194;11.632;2022-12-10T01:03:39;94661.69;;;1.41
61595;BMP280;47397;48.194;11.632;2022-12-10T01:04:39;94667.47;;;1.52
61595;BMP280;47397;48.194;11.632;2022-12-10T01:05:40;94660.88;;;1.39
61595;BMP280;47397;48.194;11.632;2022-12-10T01:06:43;94666.63;;;1.51
61595;BMP280;47397;48.194;11.632;2022-12-10T01:07:45;94667.47;;;1.52
61595;BMP280;47397;48.194;11.632;2022-12-10T01:08:46;94674.16;;;1.48
61595;BMP280;47397;48.194;11.632;2022-12-10T01:09:47;94672.66;;;1.29
61595;BMP280;47397;48.194;11.632;2022-12-10T01:10:52;94679.25;;;1.38
61595;BMP280;47397;48.194;11.632;2022-12-10T01:11:53;94679.25;;;1.38
61595;BMP280;47397;48.194;11.632;2022-12-10T01:12:54;94686.91;;;1.19
61595;BMP280;47397;48.194;11.632;2022-12-10T01:13:54;94678.56;;;1.22
61595;BMP280;47397;48.194;11.632;2022-12-10T01:14:55;94684.19;;;1.44
61595;BMP280;47397;48.194;11.632;2022-12-10T01:15:56;94675.81;;;1.51
61595;BMP280;47397;48.194;11.632;2022-12-10T01:16:59;94679.13;;;1.54
61595;BMP280;47397;48.194;11.632;2022-12-10T01:18:00;94682.44;;;1.58
61595;BMP280;47397;48.194;11.632;2022-12-10T01:19:01;94669.09;;;1.58
61595;BMP280;47397;48.194;11.632;2022-12-10T01:20:01;94673.19;;;1.63
61595;BMP280;47397;48.194;11.632;2022-12-10T01:21:02;94677.38;;;1.63
61595;BMP280;47397;48.194;11.632;2022-12-10T01:22:03;94670.72;;;1.60
61595;BMP280;47397;48.194;11.632;2022-12-10T01:23:04;94670.72;;;1.62
61595;BMP280;47397;48.194;11.632;2022-12-10T01:24:05;94668.28;;;1.55
61595;BMP280;47397;48.194;11.632;2022-12-10T01:25:06;94669.88;;;1.61
61595;BMP280;47397;48.194;11.632;2022-12-10T01:26:10;94668.25;;;1.57
61595;BMP280;47397;48.194;11.632;2022-12-10T01:27:10;94671.66;;;1.51
61595;BMP280;47397;48.194;11.632;2022-12-10T01:28:11;94674.16;;;1.50
61595;BMP280;47397;48.194;11.632;2022-12-10T01:29:11;94675.00;;;1.49
61595;BMP280;47397;48.194;11.632;2022-12-10T01:30:12;94666.66;;;1.47
61595;BMP280;47397;48.194;11.632;2022-12-10T01:31:15;94665.84;;;1.45
61595;BMP280;47397;48.194;11.632;2022-12-10T01:32:16;94669.16;;;1.45
61595;BMP280;47397;48.194;11.632;2022-12-10T01:33:16;94672.50;;;1.46
61595;BMP280;47397;48.194;11.632;2022-12-10T01:34:17;94675.06;;;1.38
61595;BMP280;47397;48.194;11.632;2022-12-10T01:35:17;94671.66;;;1.48
61595;BMP280;47397;48.194;11.632;2022-12-10T01:36:19;94670.81;;;1.46
61595;BMP280;47397;48.194;11.632;2022-12-10T01:37:20;94671.66;;;1.51
61595;BMP280;47397;48.194;11.632;2022-12-10T01:38:22;94670.00;;;1.50
61595;BMP280;47397;48.194;11.632;2022-12-10T01:39:23;94665.84;;;1.43
61595;BMP280;47397;48.194;11.632;2022-12-10T01:40:23;94671.69;;;1.42
61595;BMP280;47397;48.194;11.632;2022-12-10T01:41:26;94674.16;;;1.50
61595;BMP280;47397;48.194;11.632;2022-12-10T01:42:27;94673.41;;;1.39
61595;BMP280;47397;48.194;11.632;2022-12-10T01:43:47;94671.78;;;1.35
61595;BMP280;47397;48.194;11.632;2022-12-10T01:45:06;94675.91;;;1.37
61595;BMP280;47397;48.194;11.632;2022-12-10T01:46:07;94685.91;;;1.39
61595;BMP280;47397;48.194;11.632;2022-12-10T01:47:07;94688.38;;;1.45
61595;BMP280;47397;48.194;11.632;2022-12-10T01:48:08;94691.69;;;1.50
61595;BMP280;47397;48.194;11.632;2022-12-10T01:49:10;94687.53;;;1.46
61595;BMP280;47397;48.194;11.632;2022-12-10T01:50:10;94690.84;;;1.51
61595;BMP280;47397;48.194;11.632;2022-12-10T01:51:12;94685.84;;;1.51
61595;BMP280;47397;48.194;11.632;2022-12-10T01:52:13;94690.84;;;1.49
61595;BMP280;47397;48.194;11.632;2022-12-10T01:53:15;94687.47;;;1.56
61595;BMP280;47397;48.194;11.632;2022-12-10T01:54:20;94677.47;;;1.55
61595;BMP280;47397;48.194;11.632;2022-12-10T01:55:44;94692.53;;;1.46
61595;BMP280;47397;48.194;11.632;2022-12-10T01:56:47;94681.69;;;1.44
61595;BMP280;47397;48.194;11.632;2022-12-10T01:57:50;94685.91;;;1.39
61595;BMP280;47397;48.194;11.632;2022-12-10T01:58:52;94682.63;;;1.35
61595;BMP280;47397;48.194;11.632;2022-12-10T01:59:56;94686.00;;;1.28
61595;BMP280;47397;48.194;11.632;2022-12-10T02:01:04;94686.81;;;1.32
61595;BMP280;47397;48.194;11.632;2022-12-10T02:02:11;94690.97;;;1.33
61595;BMP280;47397;48.194;11.632;2022-12-10T02:03:17;94695.13;;;1.34
61595;BMP280;47397;48.194;11.632;2022-12-10T02:04:24;94697.56;;;1.41
61595;BMP280;47397;48.194;11.632;2022-12-10T02:05:31;94690.94;;;1.36
61595;BMP280;47397;48.194;11.632;2022-12-10T02:06:42;94689.25;;;1.41
61595;BMP280;47397;48.194;11.632;2022-12-10T02:07:53;94691.75;;;1.39
61595;BMP280;47397;48.194;11.632;2022-12-10T02:09:02;94693.47;;;1.33
61595;BMP280;47397;48.194;11.632;2022-12-10T02:10:11;94694.28;;;1.38
61595;BMP280;47397;48.194;11.632;2022-12-10T02:11:18;94693.50;;;1.31
61595;BMP280;47397;48.194;11.632;2022-12-10T02:12:23;94703.44;;;1.39
61595;BMP280;47397;48.194;11.632;2022-12-10T02:13:27;94696.06;;;1.22
61595;BMP280;47397;48.194;11.632;2022-12-10T02:14:32;94700.09;;;1.40
61595;BMP280;47397;48.194;11.632;2022-12-10T02:15:40;94693.44;;;1.39
61595;BMP280;47397;48.194;11.632;2022-12-10T02:16:47;94700.84;;;1.48
61595;BMP280;47397;48.194;11.632;2022-12-10T02:17:51;94705.94;;;1.40
61595;BMP280;47397;48.194;11.632;2022-12-10T02:18:55;94693.34;;;1.46
61595;BMP280;47397;48.194;11.632;2022-12-10T02:20:05;94687.56;;;1.40
61595;BMP280;47397;48.194;11.632;2022-12-10T02:21:08;94691.78;;;1.38
61595;BMP280;47397;48.194;11.632;2022-12-10T02:22:11;94694.28;;;1.35
61595;BMP280;47397;48.194;11.632;2022-12-10T02:23:15;94693.41;;;1.40
61595;BMP280;47397;48.194;11.632;2022-12-10T02:24:18;94690.94;;;1.36
61595;BMP280;47397;48.194;11.632;2022-12-10T02:25:25;94688.44;;;1.37
61595;BMP280;47397;48.194;11.632;2022-12-10T02:26:33;94695.91;;;1.40
61595;BMP280;47397;48.194;11.632;2022-12-10T02:27:40;94696.72;;;1.44
61595;BMP280;47397;48.194;11.632;2022-12-10T02:28:48;94691.78;;;1.35
61595;BMP280;47397;48.194;11.632;2022-12-10T02:29:54;94690.16;;;1.29
61595;BMP280;47397;48.194;11.632;2022-12-10T02:30:56;94690.06;;;1.41
61595;BMP280;47397;48.194;11.632;2022-12-10T02:32:00;94699.22;;;1.44
61595;BMP280;47397;48.194;11.632;2022-12-10T02:33:03;94695.03;;;1.46
61595;BMP280;47397;48.194;11.632;2022-12-10T02:34:07;94698.47;;;1.33
61595;BMP280;47397;48.194;11.632;2022-12-10T02:35:11;94691.81;;;1.32
61595;BMP280;47397;48.194;11.632;2022-12-10T02:36:13;94690.94;;;1.36
61595;BMP280;47397;48.194;11.632;2022-12-10T02:37:18;94691.06;;;1.20
61595;BMP280;47397;48.194;11.632;2022-12-10T02:38:24;94686.03;;;1.25
61595;BMP280;47397;48.194;11.632;2022-12-10T02:39:31;94684.41;;;1.19
61595;BMP280;47397;48.194;11.632;2022-12-10T02:40:33;94684.38;;;1.22
61595;BMP280;47397;48.194;11.632;2022-12-10T02:41:38;94682.63;;;1.32
61595;BMP280;47397;48.194;11.632;2022-12-10T02:42:42;94678.47;;;1.31
61595;BMP280;47397;48.194;11.632;2022-12-10T02:43:45;94681.03;;;1.25
61595;BMP280;47397;48.194;11.632;2022-12-10T02:44:48;94675.13;;;1.32
61595;BMP280;47397;48.194;11.632;2022-12-10T02:45:51;94677.66;;;1.31
61595;BMP280;47397;48.194;11.632;2022-12-10T02:46:54;94667.59;;;1.35
61595;BMP280;47397;48.194;11.632;2022-12-10T02:47:58;94675.13;;;1.32
61595;BMP280;47397;48.194;11.632;2022-12-10T02:49:02;94669.28;;;1.35
61595;BMP280;47397;48.194;11.632;2022-12-10T02:50:05;94673.47;;;1.33
61595;BMP280;47397;48.194;11.632;2022-12-10T02:51:06;94665.88;;;1.42
61595;BMP280;47397;48.194;11.632;2022-12-10T02:52:08;94676.72;;;1.42
61595;BMP280;47397;48.194;11.632;2022-12-10T02:53:09;94675.91;;;1.39
61595;BMP280;47397;48.194;11.632;2022-12-10T02:54:35;94676.09;;;1.17
61595;BMP280;47397;48.194;11.632;2022-12-10T02:55:47;94672.75;;;1.15
61595;BMP280;47397;48.194;11.632;2022-12-10T02:56:54;94670.34;;;1.02
61595;BMP280;47397;48.194;11.632;2022-12-10T02:58:04;94674.50;;;1.01
61595;BMP280;47397;48.194;11.632;2022-12-10T02:59:14;94668.56;;;1.19
61595;BMP280;47397;48.194;11.632;2022-12-10T03:00:17;94670.28;;;1.15
61595;BMP280;47397;48.194;11.632;2022-12-10T03:01:27;94666.00;;;1.25
61595;BMP280;47397;48.194;11.632;2022-12-10T03:02:40;94673.53;;;1.23
61595;BMP280;47397;48.194;11.632;2022-12-10T03:03:48;94668.53;;;1.23
61595;BMP280;47397;48.194;11.632;2022-12-10T03:04:53;94663.47;;;1.30
61595;BMP280;47397;48.194;11.632;2022-12-10T03:05:59;94665.19;;;1.23
61595;BMP280;47397;48.194;11.632;2022-12-10T03:07:08;94657.72;;;1.18
61595;BMP280;47397;48.194;11.632;2022-12-10T03:08:13;94661.88;;;1.19
61595;BMP280;47397;48.194;11.632;2022-12-10T03:09:20;94665.19;;;1.23
61595;BMP280;47397;48.194;11.632;2022-12-10T03:10:26;94666.81;;;1.30
61595;BMP280;47397;48.194;11.632;2022-12-10T03:11:28;94663.56;;;1.17
61595;BMP280;47397;48.194;11.632;2022-12-10T03:12:33;94667.81;;;1.03
61595;BMP280;47397;48.194;11.632;2022-12-10T03:13:39;94661.94;;;1.10
61595;BMP280;47397;48.194;11.632;2022-12-10T03:14:40;94662.69;;;1.23
61595;BMP280;47397;48.194;11.632;2022-12-10T03:15:42;94669.31;;;1.29
61595;BMP280;47397;48.194;11.632;2022-12-10T03:16:49;94666.00;;;1.27
61595;BMP280;47397;48.194;11.632;2022-12-10T03:17:52;94663.50;;;1.25
61595;BMP280;47397;48.194;11.632;2022-12-10T03:18:57;94663.47;;;1.30
61595;BMP280;47397;48.194;11.632;2022-12-10T03:19:59;94660.19;;;1.24
61595;BMP280;47397;48.194;11.632;2022-12-10T03:21:03;94665.09;;;1.35
61595;BMP280;47397;48.194;11.632;2022-12-10T03:22:05;94665.97;;;1.30
61595;BMP280;47397;48.194;11.632;2022-12-10T03:23:13;94660.13;;;1.29
61595;BMP280;47397;48.194;11.632;2022-12-10T03:24:15;94661.00;;;1.25
61595;BMP280;47397;48.194;11.632;2022-12-10T03:25:19;94658.41;;;1.36
61595;BMP280;47397;48.194;11.632;2022-12-10T03:26:21;94657.59;;;1.32
61595;BMP280;47397;48.194;11.632;2022-12-10T03:27:23;94660.22;;;1.20
61595;BMP280;47397;48.194;11.632;2022-12-10T03:28:25;94651.00;;;1.23
61595;BMP280;47397;48.194;11.632;2022-12-10T03:29:30;94661.88;;;1.19
61595;BMP280;47397;48.194;11.632;2022-12-10T03:30:32;94662.63;;;1.31
61595;BMP280;47397;48.194;11.632;2022-12-10T03:31:34;94661.78;;;1.32
61595;BMP280;47397;48.194;11.632;2022-12-10T03:32:36;94656.00;;;1.27
61595;BMP280;47397;48.194;11.632;2022-12-10T03:33:37;94665.94;;;1.33
61595;BMP280;47397;48.194;11.632;2022-12-10T03:34:38;94661.00;;;1.25
61595;BMP280;47397;48.194;11.632;2022-12-10T03:35:39;94672.09;;;0.90
61595;BMP280;47397;48.194;11.632;2022-12-10T03:36:40;94674.44;;;1.10
61595;BMP280;47397;48.194;11.632;2022-12-10T03:37:42;94673.56;;;1.20
61595;BMP280;47397;48.194;11.632;2022-12-10T03:38:43;94675.16;;;1.29
61595;BMP280;47397;48.194;11.632;2022-12-10T03:39:43;94666.75;;;1.35
61595;BMP280;47397;48.194;11.632;2022-12-10T03:40:44;94662.66;;;1.29
61595;BMP280;47397;48.194;11.632;2022-12-10T03:41:44;94662.69;;;1.23
61595;BMP280;47397;48.194;11.632;2022-12-10T03:42:45;94654.25;;;1.35
61595;BMP280;47397;48.194;11.632;2022-12-10T03:43:50;94660.13;;;1.32
61595;BMP280;47397;48.194;11.632;2022-12-10T03:44:51;94652.63;;;1.29
61595;BMP280;47397;48.194;11.632;2022-12-10T03:45:52;94654.22;;;1.38
61595;BMP280;47397;48.194;11.632;2022-12-10T03:46:52;94662.75;;;1.17
61595;BMP280;47397;48.194;11.632;2022-12-10T03:47:54;94658.63;;;1.07
61595;BMP280;47397;48.194;11.632;2022-12-10T03:48:58;94658.59;;;1.16
61595;BMP280;47397;48.194;11.632;2022-12-10T03:49:58;94652.63;;;1.29
61595;BMP280;47397;48.194;11.632;2022-12-10T03:50:59;94659.28;;;1.32
61595;BMP280;47397;48.194;11.632;2022-12-10T03:51:59;94657.69;;;1.24
61595;BMP280;47397;48.194;11.632;2022-12-10T03:53:00;94659.25;;;1.35
61595;BMP280;47397;48.194;11.632;2022-12-10T03:54:00;94653.59;;;1.16
61595;BMP280;47397;48.194;11.632;2022-12-10T03:55:00;94652.81;;;1.05
61595;BMP280;47397;48.194;11.632;2022-12-10T03:56:01;94661.25;;;0.91
61595;BMP280;47397;48.194;11.632;2022-12-10T03:57:01;94661.13;;;1.07
61595;BMP280;47397;48.194;11.632;2022-12-10T03:58:02;94666.09;;;1.16
61595;BMP280;47397;48.194;11.632;2022-12-10T03:59:02;94669.50;;;1.04
61595;BMP280;47397;48.194;11.632;2022-12-10T04:00:06;94671.94;;;1.15
61595;BMP280;47397;48.194;11.632;2022-12-10T04:01:07;94665.31;;;1.05
61595;BMP280;47397;48.194;11.632;2022-12-10T04:02:07;94661.09;;;1.11
61595;BMP280;47397;48.194;11.632;2022-12-10T04:03:09;94659.47;;;1.12
61595;BMP280;47397;48.194;11.632;2022-12-10T04:04:09;94659.44;;;1.13
61595;BMP280;47397;48.194;11.632;2022-12-10T04:05:10;94661.97;;;1.07
61595;BMP280;47397;48.194;11.632;2022-12-10T04:06:14;94654.56;;;0.92
61595;BMP280;47397;48.194;11.632;2022-12-10T04:07:14;94658.72;;;0.94
61595;BMP280;47397;48.194;11.632;2022-12-10T04:08:15;94655.28;;;1.06
61595;BMP280;47397;48.194;11.632;2022-12-10T04:09:16;94652.00;;;1.00
61595;BMP280;47397;48.194;11.632;2022-12-10T04:10:16;94662.81;;;1.05
61595;BMP280;47397;48.194;11.632;2022-12-10T04:11:17;94661.88;;;1.19
61595;BMP280;47397;48.194;11.632;2022-12-10T04:12:17;94667.75;;;1.17
61595;BMP280;47397;48.194;11.632;2022-12-10T04:13:17;94664.41;;;1.19
61595;BMP280;47397;48.194;11.632;2022-12-10T04:14:18;94669.38;;;1.22
61595;BMP280;47397;48.194;11.632;2022-12-10T04:15:18;94666.84;;;1.27
61595;BMP280;47397;48.194;11.632;2022-12-10T04:16:19;94668.50;;;1.27
61595;BMP280;47397;48.194;11.632;2022-12-10T04:17:19;94673.53;;;1.25
61595;BMP280;47397;48.194;11.632;2022-12-10T04:18:21;94677.75;;;1.18
61595;BMP280;47397;48.194;11.632;2022-12-10T04:19:21;94671.03;;;1.22
61595;BMP280;47397;48.194;11.632;2022-12-10T04:20:22;94671.91;;;1.18
61595;BMP280;47397;48.194;11.632;2022-12-10T04:21:22;94676.09;;;1.16
61595;BMP280;47397;48.194;11.632;2022-12-10T04:22:23;94681.88;;;1.22
61595;BMP280;47397;48.194;11.632;2022-12-10T04:23:23;94682.75;;;1.18
61595;BMP280;47397;48.194;11.632;2022-12-10T04:24:26;94683.88;;;0.75
61595;BMP280;47397;48.194;11.632;2022-12-10T04:25:26;94676.25;;;0.91
61595;BMP280;47397;48.194;11.632;2022-12-10T04:26:27;94680.28;;;1.09
61595;BMP280;47397;48.194;11.632;2022-12-10T04:27:29;94676.22;;;0.94
61595;BMP280;47397;48.194;11.632;2022-12-10T04:28:29;94683.69;;;1.02
61595;BMP280;47397;48.194;11.632;2022-12-10T04:29:30;94681.94;;;1.10
61595;BMP280;47397;48.194;11.632;2022-12-10T04:30:31;94674.44;;;1.10
61595;BMP280;47397;48.194;11.632;2022-12-10T04:31:31;94671.09;;;1.16
61595;BMP280;47397;48.194;11.632;2022-12-10T04:32:32;94676.94;;;1.16
61595;BMP280;47397;48.194;11.632;2022-12-10T04:33:34;94669.41;;;1.19
61595;BMP280;47397;48.194;11.632;2022-12-10T04:34:34;94672.84;;;1.03
61595;BMP280;47397;48.194;11.632;2022-12-10T04:35:35;94673.59;;;1.11
61595;BMP280;47397;48.194;11.632;2022-12-10T04:36:35;94673.59;;;1.17
61595;BMP280;47397;48.194;11.632;2022-12-10T04:37:36;94672.75;;;1.17
61595;BMP280;47397;48.194;11.632;2022-12-10T04:38:36;94673.59;;;1.17
61595;BMP280;47397;48.194;11.632;2022-12-10T04:39:37;94681.19;;;1.01
61595;BMP280;47397;48.194;11.632;2022-12-10T04:40:37;94681.94;;;1.10
61595;BMP280;47397;48.194;11.632;2022-12-10T04:41:39;94681.16;;;1.05
61595;BMP280;47397;48.194;11.632;2022-12-10T04:42:39;94682.81;;;1.06
61595;BMP280;47397;48.194;11.632;2022-12-10T04:43:40;94679.44;;;1.16
61595;BMP280;47397;48.194;11.632;2022-12-10T04:44:40;94679.47;;;1.12
61595;BMP280;47397;48.194;11.632;2022-12-10T04:45:40;94680.47;;;0.85
61595;BMP280;47397;48.194;11.632;2022-12-10T04:46:41;94686.19;;;0.99
61595;BMP280;47397;48.194;11.632;2022-12-10T04:47:42;94684.53;;;1.01
61595;BMP280;47397;48.194;11.632;2022-12-10T04:48:43;94686.09;;;1.16
61595;BMP280;47397;48.194;11.632;2022-12-10T04:49:44;94684.56;;;0.97
61595;BMP280;47397;48.194;11.632;2022-12-10T04:50:46;94684.53;;;1.01
61595;BMP280;47397;48.194;11.632;2022-12-10T04:51:47;94684.59;;;0.92
61595;BMP280;47397;48.194;11.632;2022-12-10T04:52:47;94692.09;;;0.90
61595;BMP280;47397;48.194;11.632;2022-12-10T04:53:48;94685.31;;;1.05
61595;BMP280;47397;48.194;11.632;2022-12-10T04:54:48;94691.13;;;1.10
61595;BMP280;47397;48.194;11.632;2022-12-10T04:55:48;94690.25;;;1.18
61595;BMP280;47397;48.194;11.632;2022-12-10T04:56:49;94691.19;;;1.02
61595;BMP280;47397;48.194;11.632;2022-12-10T04:57:49;94691.19;;;1.01
61595;BMP280;47397;48.194;11.632;2022-12-10T04:58:50;94692.91;;;0.94
61595;BMP280;47397;48.194;11.632;2022-12-10T04:59:50;94693.69;;;1.04
61595;BMP280;47397;48.194;11.632;2022-12-10T05:00:51;94687.84;;;1.03
61595;BMP280;47397;48.194;11.632;2022-12-10T05:01:51;94683.63;;;1.11
61595;BMP280;47397;48.194;11.632;2022-12-10T05:02:51;94686.13;;;1.11
61595;BMP280;47397;48.194;11.632;2022-12-10T05:03:54;94676.13;;;1.10
61595;BMP280;47397;48.194;11.632;2022-12-10T05:04:54;94677.94;;;0.91
61595;BMP280;47397;48.194;11.632;2022-12-10T05:05:55;94670.41;;;0.94
61595;BMP280;47397;48.194;11.632;2022-12-10T05:06:55;94680.38;;;0.99
61595;BMP280;47397;48.194;11.632;2022-12-10T05:07:55;94677.78;;;1.09
61595;BMP280;47397;48.194;11.632;2022-12-10T05:08:56;94679.47;;;1.13
61595;BMP280;47397;48.194;11.632;2022-12-10T05:09:56;94680.41;;;0.96
61595;BMP280;47397;48.194;11.632;2022-12-10T05:11:00;94685.31;;;1.12
61595;BMP280;47397;48.194;11.632;2022-12-10T05:12:00;94684.47;;;1.07
61595;BMP280;47397;48.194;11.632;2022-12-10T05:13:01;94688.66;;;1.05
61595;BMP280;47397;48.194;11.632;2022-12-10T05:14:01;94689.50;;;1.04
61595;BMP280;47397;48.194;11.632;2022-12-10T05:15:02;94685.31;;;1.06
61595;BMP280;47397;48.194;11.632;2022-12-10T05:16:03;94680.50;;;0.82
61595;BMP280;47397;48.194;11.632;2022-12-10T05:17:04;94677.94;;;0.88
61595;BMP280;47397;48.194;11.632;2022-12-10T05:18:04;94680.34;;;1.02
61595;BMP280;47397;48.194;11.632;2022-12-10T05:19:07;94680.34;;;1.03
61595;BMP280;47397;48.194;11.632;2022-12-10T05:20:09;94681.13;;;1.08
61595;BMP280;47397;48.194;11.632;2022-12-10T05:21:11;94678.72;;;0.94
61595;BMP280;47397;48.194;11.632;2022-12-10T05:22:11;94680.41;;;0.96
61595;BMP280;47397;48.194;11.632;2022-12-10T05:23:12;94679.66;;;0.83
61595;BMP280;47397;48.194;11.632;2022-12-10T05:24:12;94677.91;;;0.94
61595;BMP280;47397;48.194;11.632;2022-12-10T05:25:13;94677.03;;;1.00
61595;BMP280;47397;48.194;11.632;2022-12-10T05:26:16;94673.66;;;1.04
61595;BMP280;47397;48.194;11.632;2022-12-10T05:27:17;94673.78;;;0.88
61595;BMP280;47397;48.194;11.632;2022-12-10T05:28:17;94676.19;;;1.02
61595;BMP280;47397;48.194;11.632;2022-12-10T05:29:18;94672.03;;;0.98
61595;BMP280;47397;48.194;11.632;2022-12-10T05:30:19;94668.66;;;1.04
61595;BMP280;47397;48.194;11.632;2022-12-10T05:31:21;94661.22;;;0.94
61595;BMP280;47397;48.194;11.632;2022-12-10T05:32:22;94665.50;;;0.74
61595;BMP280;47397;48.194;11.632;2022-12-10T05:33:23;94666.34;;;0.76
61595;BMP280;47397;48.194;11.632;2022-12-10T05:34:25;94670.44;;;0.88
61595;BMP280;47397;48.194;11.632;2022-12-10T05:35:25;94675.34;;;1.02
61595;BMP280;47397;48.194;11.632;2022-12-10T05:36:28;94673.81;;;0.84
61595;BMP280;47397;48.194;11.632;2022-12-10T05:37:28;94677.84;;;1.00
61595;BMP280;47397;48.194;11.632;2022-12-10T05:38:30;94668.59;;;1.10
61595;BMP280;47397;48.194;11.632;2022-12-10T05:39:31;94672.78;;;1.12
61595;BMP280;47397;48.194;11.632;2022-12-10T05:40:34;94676.16;;;1.05
61595;BMP280;47397;48.194;11.632;2022-12-10T05:41:36;94682.84;;;1.03
61595;BMP280;47397;48.194;11.632;2022-12-10T05:42:37;94682.03;;;1.00
61595;BMP280;47397;48.194;11.632;2022-12-10T05:43:38;94677.84;;;1.02
61595;BMP280;47397;48.194;11.632;2022-12-10T05:44:38;94686.22;;;0.96
61595;BMP280;47397;48.194;11.632;2022-12-10T05:45:38;94681.19;;;0.99
61595;BMP280;47397;48.194;11.632;2022-12-10T05:46:39;94686.13;;;1.08
61595;BMP280;47397;48.194;11.632;2022-12-10T05:47:39;94683.66;;;1.04
61595;BMP280;47397;48.194;11.632;2022-12-10T05:48:40;94685.31;;;1.06
61595;BMP280;47397;48.194;11.632;2022-12-10T05:49:42;94691.13;;;1.11
61595;BMP280;47397;48.194;11.632;2022-12-10T05:50:42;94686.13;;;1.10
61595;BMP280;47397;48.194;11.632;2022-12-10T05:51:43;94691.94;;;1.16
61595;BMP280;47397;48.194;11.632;2022-12-10T05:52:43;94685.34;;;1.02
61595;BMP280;47397;48.194;11.632;2022-12-10T05:53:44;94694.47;;;1.07
61595;BMP280;47397;48.194;11.632;2022-12-10T05:54:45;94688.75;;;0.94
61595;BMP280;47397;48.194;11.632;2022-12-10T05:55:45;94694.47;;;1.09
61595;BMP280;47397;48.194;11.632;2022-12-10T05:56:45;94690.31;;;1.12
61595;BMP280;47397;48.194;11.632;2022-12-10T05:57:46;94690.31;;;1.06
61595;BMP280;47397;48.194;11.632;2022-12-10T05:58:48;94688.63;;;1.08